Time;durP1;ratioP1;P1;durP2;ratioP2;P2;SDS_P1;SDS_P2;PMS_P1;PMS_P2;Temp;Humidity;BMP_temperature;BMP_pressure;BME280_temperature;BME280_humidity;BME280_pressure;Samples;Min_cycle;Max_cycle;Signal;HPM_P1;HPM_P2
2023/08/11 00:01:29;;;;;;;4.60;1.60;;;;;;;14.11;77.56;99256.14;105589;1254;73513;-22
2023/08/11 00:03:57;;;;;;;3.10;1.70;;;;;;;13.88;77.89;99253.64;105600;1256;74308;-22
2023/08/11 00:06:25;;;;;;;2.70;1.70;;;;;;;13.60;77.89;99255.15;105524;1254;72602;-22
2023/08/11 00:08:55;;;;;;;2.80;1.70;;;;;;;13.29;78.44;99252.67;105565;1257;61035;-22
2023/08/11 00:11:22;;;;;;;2.00;1.50;;;;;;;12.94;79.53;99254.04;105749;1256;62478;-22
2023/08/11 00:13:49;;;;;;;1.80;1.30;;;;;;;12.68;80.60;99251.05;105636;1254;73951;-22
2023/08/11 00:16:16;;;;;;;4.00;1.60;;;;;;;13.08;81.06;99245.44;105295;1260;74286;-22
2023/08/11 00:18:43;;;;;;;2.60;1.60;;;;;;;13.61;80.21;99243.72;105553;1254;72607;-24
2023/08/11 00:21:12;;;;;;;4.10;1.90;;;;;;;13.70;79.88;99242.42;105524;1257;61115;-23
2023/08/11 00:23:39;;;;;;;3.10;1.90;;;;;;;13.50;80.89;99248.00;105776;1257;61118;-23
2023/08/11 00:26:07;;;;;;;3.50;1.90;;;;;;;13.26;81.44;99246.49;105372;1260;73721;-22
2023/08/11 00:28:34;;;;;;;4.20;1.90;;;;;;;13.04;79.78;99240.23;105539;1255;74381;-22
2023/08/11 00:31:01;;;;;;;2.70;1.40;;;;;;;12.84;79.76;99242.33;105523;1254;72434;-22
2023/08/11 00:33:28;;;;;;;2.00;1.20;;;;;;;13.16;79.48;99235.89;105520;1254;61018;-22
2023/08/11 00:35:55;;;;;;;3.30;1.50;;;;;;;13.59;77.47;99236.77;105520;1257;61163;-22
2023/08/11 00:38:22;;;;;;;2.20;1.50;;;;;;;13.59;76.94;99238.02;105855;1256;73751;-22
2023/08/11 00:40:49;;;;;;;5.00;1.60;;;;;;;13.40;77.20;99229.59;105760;1259;74269;-22
2023/08/11 00:43:15;;;;;;;6.80;2.30;;;;;;;13.15;77.89;99227.98;105547;1255;72344;-22
2023/08/11 00:45:44;;;;;;;2.40;2.00;;;;;;;12.88;79.48;99230.80;105573;1254;61102;-22
2023/08/11 00:48:11;;;;;;;1.90;1.20;;;;;;;12.66;80.42;99228.77;105523;1260;61192;-22
2023/08/11 00:50:39;;;;;;;3.50;1.30;;;;;;;13.03;80.74;99226.58;105525;1254;73748;-22
2023/08/11 00:53:07;;;;;;;2.80;1.70;;;;;;;13.51;79.73;99228.93;105557;1254;74287;-22
2023/08/11 00:55:33;;;;;;;4.10;1.40;;;;;;;13.52;77.96;99229.69;105607;1257;72624;-22
2023/08/11 00:58:01;;;;;;;4.40;1.60;;;;;;;13.31;78.04;99228.96;105562;1254;61045;-22
2023/08/11 01:00:28;;;;;;;4.00;1.90;;;;;;;13.00;79.11;99227.54;105531;1266;61392;-25
2023/08/11 01:02:55;;;;;;;2.80;2.00;;;;;;;12.67;80.64;99226.95;105518;1257;73500;-24
2023/08/11 01:05:22;;;;;;;2.30;1.40;;;;;;;12.43;82.13;99228.84;105590;1256;74100;-22
2023/08/11 01:08:12;;;;;;;2.80;1.60;;;;;;;12.77;83.17;99226.17;105509;1257;73154;-22
2023/08/11 01:10:46;;;;;;;2.50;1.80;;;;;;;13.26;81.40;99221.55;105515;1252;61152;-22
2023/08/11 01:13:19;;;;;;;2.60;1.60;;;;;;;13.19;80.33;99220.65;105691;1257;61209;-22
2023/08/11 01:16:00;;;;;;;3.60;2.00;;;;;;;12.91;80.48;99220.77;105575;1259;72253;-22
2023/08/11 01:18:28;;;;;;;4.20;1.80;;;;;;;12.63;81.66;99221.80;105502;1254;74283;-22
2023/08/11 01:20:59;;;;;;;2.10;1.90;;;;;;;12.40;81.97;99221.27;105285;1257;72801;-23
2023/08/11 01:23:26;;;;;;;2.20;1.20;;;;;;;12.20;82.34;99222.41;105231;1263;61732;-23
2023/08/11 01:25:52;;;;;;;3.10;1.10;;;;;;;12.60;82.71;99224.04;105488;1257;61096;-23
2023/08/11 01:28:19;;;;;;;3.30;1.20;;;;;;;13.07;79.88;99216.98;105520;1259;74369;-23
2023/08/11 01:30:48;;;;;;;1.70;1.30;;;;;;;13.03;78.10;99217.11;105797;1254;74209;-23
2023/08/11 01:33:15;;;;;;;7.40;2.30;;;;;;;12.71;78.10;99219.56;105768;1254;72695;-23
2023/08/11 01:35:42;;;;;;;3.00;1.60;;;;;;;12.42;78.52;99222.64;105816;1255;61413;-24
2023/08/11 01:38:09;;;;;;;2.30;1.60;;;;;;;12.15;79.27;99220.89;105516;1254;60991;-23
2023/08/11 01:40:37;;;;;;;3.50;1.90;;;;;;;11.93;80.12;99216.30;105535;1254;73854;-23
2023/08/11 01:43:05;;;;;;;1.50;1.10;;;;;;;11.80;80.73;99216.89;105511;1257;74327;-23
2023/08/11 01:45:33;;;;;;;2.70;1.30;;;;;;;12.26;80.98;99215.60;105329;1260;73237;-23
2023/08/11 01:48:01;;;;;;;4.10;1.60;;;;;;;12.79;80.34;99214.40;105486;1254;61032;-23
2023/08/11 01:50:28;;;;;;;2.50;1.70;;;;;;;12.85;80.51;99214.02;105500;1259;61147;-23
2023/08/11 01:52:55;;;;;;;3.80;2.10;;;;;;;12.68;80.37;99218.30;105796;1254;72806;-23
2023/08/11 01:55:24;;;;;;;2.50;1.90;;;;;;;12.45;80.81;99217.63;105883;1259;73463;-23
2023/08/11 01:57:52;;;;;;;4.70;2.40;;;;;;;12.24;81.30;99220.17;105869;1257;72736;-23
2023/08/11 02:00:27;;;;;;;3.10;1.40;;;;;;;12.05;82.01;99216.65;105506;1260;61760;-23
2023/08/11 02:02:56;;;;;;;2.50;1.30;;;;;;;12.51;81.26;99215.44;105533;1255;61179;-24
2023/08/11 02:05:26;;;;;;;3.10;1.60;;;;;;;12.93;78.33;99210.51;105521;1254;73681;-23
2023/08/11 02:07:55;;;;;;;2.50;1.60;;;;;;;12.86;77.90;99211.89;105583;1260;74687;-23
2023/08/11 02:10:22;;;;;;;2.50;1.90;;;;;;;12.60;78.18;99213.95;105581;1257;72512;-23
2023/08/11 02:12:49;;;;;;;4.70;2.70;;;;;;;12.30;79.01;99216.16;105544;1254;61191;-23
2023/08/11 02:15:16;;;;;;;2.00;1.30;;;;;;;12.07;80.07;99216.88;105813;1257;61055;-23
2023/08/11 02:17:44;;;;;;;5.50;2.50;;;;;;;11.83;80.02;99217.84;105726;1257;73653;-23
2023/08/11 02:20:29;;;;;;;2.70;1.50;;;;;;;11.63;80.45;99217.55;105750;1259;74177;-23
2023/08/11 02:22:56;;;;;;;2.30;1.20;;;;;;;12.12;80.84;99217.50;105543;1254;72640;-23
2023/08/11 02:25:25;;;;;;;1.70;1.40;;;;;;;12.54;78.61;99218.80;105539;1257;61048;-23
2023/08/11 02:27:52;;;;;;;1.70;1.20;;;;;;;12.49;77.96;99217.15;105549;1257;61176;-23
2023/08/11 02:30:21;;;;;;;3.30;1.90;;;;;;;12.26;78.63;99217.00;105308;1254;73898;-23
2023/08/11 02:32:50;;;;;;;2.40;1.80;;;;;;;11.97;80.74;99220.81;105528;1258;74294;-23
2023/08/11 02:35:17;;;;;;;3.30;2.00;;;;;;;11.70;81.75;99224.30;105585;1254;73220;-23
2023/08/11 02:37:44;;;;;;;3.00;1.50;;;;;;;11.48;82.87;99222.44;105505;1256;62648;-24
2023/08/11 02:40:11;;;;;;;2.40;1.50;;;;;;;11.84;82.88;99222.79;105532;1257;61062;-23
2023/08/11 02:42:45;;;;;;;2.40;1.60;;;;;;;12.30;81.51;99226.08;105654;1254;73615;-23
2023/08/11 02:45:12;;;;;;;;;;;;;;;12.29;80.54;99223.69;105565;1260;74300;-23
2023/08/11 02:47:39;;;;;;;2.00;1.40;;;;;;;12.05;80.51;99222.45;105825;1257;72478;-23
2023/08/11 02:50:08;;;;;;;2.20;1.50;;;;;;;11.77;80.87;99224.07;105656;1255;61075;-23
2023/08/11 02:52:36;;;;;;;4.80;2.00;;;;;;;11.51;81.13;99224.42;105743;1256;61096;-22
2023/08/11 02:55:04;;;;;;;1.10;1.00;;;;;;;11.30;81.93;99221.59;105557;1255;73814;-23
2023/08/11 02:57:32;;;;;;;1.70;1.30;;;;;;;11.70;82.06;99222.17;105538;1258;73585;-23
2023/08/11 02:59:59;;;;;;;1.50;1.10;;;;;;;12.17;80.27;99226.85;105666;1252;72504;-23
2023/08/11 03:02:26;;;;;;;5.40;1.80;;;;;;;12.08;78.58;99225.48;105763;1258;61209;-23
2023/08/11 03:04:53;;;;;;;2.30;1.90;;;;;;;11.75;80.22;99226.99;105573;1259;61128;-23
2023/08/11 03:07:21;;;;;;;2.60;1.90;;;;;;;11.47;81.15;99219.02;105604;1259;73613;-23
2023/08/11 03:09:49;;;;;;;2.00;1.80;;;;;;;11.26;82.27;99214.17;105625;1257;74138;-23
2023/08/11 03:12:16;;;;;;;2.30;1.40;;;;;;;11.16;82.99;99218.78;105217;1254;72650;-23
2023/08/11 03:14:43;;;;;;;2.70;1.60;;;;;;;11.59;82.78;99214.59;105599;1254;61142;-23
2023/08/11 03:17:13;;;;;;;2.90;2.00;;;;;;;12.11;81.38;99215.51;105511;1257;61579;-23
2023/08/11 03:19:40;;;;;;;3.50;1.90;;;;;;;12.21;80.43;99213.09;105648;1260;73902;-23
2023/08/11 03:22:07;;;;;;;4.20;2.50;;;;;;;12.10;80.31;99214.56;105543;1257;73320;-23
2023/08/11 03:24:35;;;;;;;7.00;2.20;;;;;;;11.97;80.60;99212.66;105670;1266;72450;-23
2023/08/11 03:27:02;;;;;;;5.60;2.60;;;;;;;11.86;80.95;99213.73;105527;1257;61016;-23
2023/08/11 03:29:30;;;;;;;2.10;1.50;;;;;;;11.81;81.34;99215.52;105551;1261;61083;-22
2023/08/11 03:31:58;;;;;;;3.70;1.70;;;;;;;12.46;81.19;99215.80;105762;1257;74414;-23
2023/08/11 03:34:26;;;;;;;2.30;2.00;;;;;;;13.22;78.76;99212.14;105734;1258;74327;-23
2023/08/11 03:36:54;;;;;;;3.50;2.30;;;;;;;13.54;77.23;99210.21;105818;1260;72462;-23
2023/08/11 03:39:21;;;;;;;3.80;2.60;;;;;;;13.68;76.89;99207.32;105527;1256;60991;-23
2023/08/11 03:41:48;;;;;;;6.90;2.70;;;;;;;13.80;76.17;99206.90;105544;1254;61170;-23
2023/08/11 03:44:15;;;;;;;2.80;2.00;;;;;;;13.90;75.59;99205.00;105538;1257;73756;-23
2023/08/11 03:46:43;;;;;;;2.70;1.90;;;;;;;13.99;74.90;99205.61;105549;1258;74176;-23
2023/08/11 03:49:11;;;;;;;2.80;2.00;;;;;;;14.59;73.58;99206.40;105643;1254;72823;-24
2023/08/11 03:51:38;;;;;;;2.90;2.00;;;;;;;15.25;71.73;99198.02;105544;1254;61130;-23
2023/08/11 03:54:05;;;;;;;3.10;1.90;;;;;;;15.46;70.47;99193.30;105548;1257;61099;-23
2023/08/11 03:56:34;;;;;;;2.30;2.00;;;;;;;15.49;70.39;99191.11;105519;1258;73749;-23
2023/08/11 03:59:01;;;;;;;5.10;2.20;;;;;;;15.45;70.19;99194.79;105710;1257;74182;-23
2023/08/11 04:01:28;;;;;;;5.10;2.30;;;;;;;15.41;70.50;99195.02;105610;1257;72546;-23
2023/08/11 04:03:55;;;;;;;4.60;3.20;;;;;;;15.41;70.70;99195.20;105520;1257;61137;-23
2023/08/11 04:06:28;;;;;;;6.20;2.00;;;;;;;15.45;71.03;99196.34;105549;1252;61545;-23
2023/08/11 04:08:55;;;;;;;4.30;2.00;;;;;;;15.52;71.18;99193.27;105515;1257;73656;-23
2023/08/11 04:11:22;;;;;;;3.20;1.80;;;;;;;16.14;70.81;99194.73;105751;1259;74565;-23
2023/08/11 04:13:49;;;;;;;2.70;2.00;;;;;;;16.90;68.94;99190.79;105492;1255;72726;-24
2023/08/11 04:16:18;;;;;;;3.00;2.10;;;;;;;17.20;67.42;99190.13;105501;1255;61364;-23
2023/08/11 04:18:45;;;;;;;8.00;2.70;;;;;;;17.21;66.74;99191.21;105680;1256;61153;-23
2023/08/11 04:21:12;;;;;;;3.60;2.40;;;;;;;17.20;66.64;99191.11;105823;1254;73514;-23
2023/08/11 04:23:40;;;;;;;3.70;2.70;;;;;;;17.18;67.26;99189.84;105681;1257;73258;-23
2023/08/11 04:26:07;;;;;;;3.30;2.50;;;;;;;17.14;68.11;99187.19;105585;1257;71532;-23
2023/08/11 04:28:36;;;;;;;5.50;3.10;;;;;;;17.11;68.20;99185.84;105618;1257;62631;-23
2023/08/11 04:31:03;;;;;;;5.10;2.90;;;;;;;17.10;68.68;99189.72;105737;1259;61217;-23
2023/08/11 04:33:32;;;;;;;4.20;2.60;;;;;;;17.06;68.98;99188.04;105873;1260;73719;-23
2023/08/11 04:36:00;;;;;;;2.70;2.20;;;;;;;17.02;69.03;99193.76;105642;1257;74263;-23
2023/08/11 04:38:31;;;;;;;2.80;1.90;;;;;;;16.96;70.39;99192.08;105526;1254;72668;-23
2023/08/11 04:40:58;;;;;;;3.20;1.90;;;;;;;17.57;70.27;99195.84;105255;1254;61210;-23
2023/08/11 04:43:26;;;;;;;4.40;2.40;;;;;;;18.27;68.82;99194.88;105678;1254;61250;-24
2023/08/11 04:45:54;;;;;;;7.40;2.20;;;;;;;18.58;67.92;99190.50;105876;1254;73864;-23
2023/08/11 04:48:21;;;;;;;5.80;2.70;;;;;;;18.73;67.74;99193.21;105384;1262;74477;-23
2023/08/11 04:50:53;;;;;;;5.20;2.80;;;;;;;18.80;67.00;99197.35;105612;1257;72567;-23
2023/08/11 04:53:21;;;;;;;4.80;2.80;;;;;;;18.62;65.14;99195.64;105489;1258;61127;-23
2023/08/11 04:55:48;;;;;;;4.70;3.20;;;;;;;18.47;66.21;99201.10;105613;1260;61102;-24
2023/08/11 04:58:15;;;;;;;3.80;3.00;;;;;;;18.47;66.50;99201.73;105686;1254;73807;-23
2023/08/11 05:00:43;;;;;;;7.10;4.50;;;;;;;18.63;66.01;99196.48;105670;1254;74248;-23
2023/08/11 05:03:10;;;;;;;5.00;2.80;;;;;;;18.77;65.45;99199.41;105573;1254;72700;-23
2023/08/11 05:05:37;;;;;;;4.40;3.00;;;;;;;18.93;65.00;99202.50;105469;1254;61049;-23
2023/08/11 05:08:04;;;;;;;4.90;3.30;;;;;;;18.92;62.75;99205.60;105570;1256;61099;-23
2023/08/11 05:10:31;;;;;;;6.60;3.30;;;;;;;19.08;62.61;99207.36;105760;1257;73744;-23
2023/08/11 05:12:58;;;;;;;5.20;3.00;;;;;;;19.20;62.49;99210.95;105578;1257;74297;-23
2023/08/11 05:15:25;;;;;;;5.50;3.30;;;;;;;19.40;62.42;99212.16;105735;1255;72490;-23
2023/08/11 05:17:52;;;;;;;21.30;12.30;;;;;;;19.38;62.08;99208.52;105715;1254;61069;-24
2023/08/11 05:20:21;;;;;;;5.40;3.70;;;;;;;19.60;61.79;99204.23;105533;1252;61112;-23
2023/08/11 05:22:48;;;;;;;6.80;4.70;;;;;;;19.84;61.28;99203.96;105582;1254;73716;-24
2023/08/11 05:25:15;;;;;;;5.90;3.90;;;;;;;19.96;59.94;99202.59;105642;1256;74573;-23
2023/08/11 05:27:42;;;;;;;8.30;5.20;;;;;;;19.85;58.89;99201.73;105813;1257;73059;-23
2023/08/11 05:30:10;;;;;;;25.20;17.20;;;;;;;20.07;60.35;99206.56;105299;1260;61112;-24
2023/08/11 05:32:37;;;;;;;13.80;7.80;;;;;;;20.30;59.91;99205.30;105567;1258;61208;-22
2023/08/11 05:35:05;;;;;;;11.20;7.00;;;;;;;20.19;58.75;99205.44;105791;1254;73928;-23
2023/08/11 05:37:32;;;;;;;9.50;4.80;;;;;;;20.50;58.51;99209.16;105724;1255;74306;-24
2023/08/11 05:39:59;;;;;;;14.80;9.20;;;;;;;20.69;56.59;99206.21;105882;1257;72597;-24
2023/08/11 05:42:26;;;;;;;9.30;4.70;;;;;;;20.94;55.81;99210.09;105836;1256;61150;-23
2023/08/11 05:44:53;;;;;;;17.60;8.30;;;;;;;21.09;55.54;99215.70;105544;1256;61125;-24
2023/08/11 05:47:20;;;;;;;7.60;3.80;;;;;;;21.23;54.77;99216.42;105587;1252;73521;-23
2023/08/11 05:49:47;;;;;;;4.20;3.30;;;;;;;21.32;53.68;99219.02;105719;1257;74330;-23
2023/08/11 05:52:14;;;;;;;6.60;3.30;;;;;;;20.92;53.82;99220.39;105680;1254;72726;-24
2023/08/11 05:54:41;;;;;;;5.60;2.60;;;;;;;21.09;53.94;99223.08;105762;1254;61145;-24
2023/08/11 05:57:08;;;;;;;14.80;5.70;;;;;;;20.92;53.30;99220.35;105530;1252;61284;-23
2023/08/11 05:59:35;;;;;;;6.50;2.80;;;;;;;21.02;53.83;99221.50;105645;1254;73793;-23
2023/08/11 06:02:03;;;;;;;9.90;6.10;;;;;;;21.14;53.16;99229.84;105578;1257;74263;-24
2023/08/11 06:04:30;;;;;;;11.80;7.30;;;;;;;20.58;52.52;99227.82;105585;1254;72621;-24
2023/08/11 06:06:57;;;;;;;14.70;7.50;;;;;;;20.76;53.44;99228.35;105606;1252;61749;-23
2023/08/11 06:09:24;;;;;;;6.70;4.00;;;;;;;21.02;53.53;99228.21;105741;1256;61172;-24
2023/08/11 06:11:50;;;;;;;8.20;4.60;;;;;;;20.69;52.07;99228.60;105543;1254;74244;-24
2023/08/11 06:14:17;;;;;;;9.60;3.40;;;;;;;20.86;51.67;99230.46;105534;1257;74296;-24
2023/08/11 06:16:44;;;;;;;15.10;6.00;;;;;;;21.08;52.10;99232.92;105501;1254;72512;-23
2023/08/11 06:19:12;;;;;;;5.50;3.00;;;;;;;21.05;52.59;99231.55;105535;1252;61032;-24
2023/08/11 06:21:39;;;;;;;13.30;6.70;;;;;;;20.97;51.77;99236.31;105616;1258;61132;-23
2023/08/11 06:24:06;;;;;;;10.70;6.00;;;;;;;20.74;50.80;99241.10;105884;1255;73790;-23
2023/08/11 06:26:33;;;;;;;6.40;4.20;;;;;;;20.82;51.63;99240.84;105906;1255;74293;-23
2023/08/11 06:29:01;;;;;;;7.80;3.00;;;;;;;20.90;51.86;99240.06;105823;1256;72474;-23
2023/08/11 06:31:28;;;;;;;29.00;16.20;;;;;;;20.77;51.96;99242.29;105662;1258;61147;-22
2023/08/11 06:33:55;;;;;;;4.40;2.70;;;;;;;20.90;51.38;99241.54;105694;1257;61104;-23
2023/08/11 06:36:22;;;;;;;5.30;2.40;;;;;;;21.11;51.88;99240.20;105633;1254;73788;-23
2023/08/11 06:38:51;;;;;;;5.30;2.60;;;;;;;21.14;51.15;99239.04;105565;1254;74285;-22
2023/08/11 06:41:18;;;;;;;20.20;9.60;;;;;;;21.01;51.63;99239.08;105730;1254;72423;-22
2023/08/11 06:43:47;;;;;;;9.30;3.50;;;;;;;21.03;51.28;99236.38;105492;1252;61147;-23
2023/08/11 06:46:14;;;;;;;29.90;15.20;;;;;;;20.99;52.10;99234.62;105299;1260;61250;-24
2023/08/11 06:48:42;;;;;;;18.60;9.90;;;;;;;21.21;51.29;99232.95;105610;1257;73789;-23
2023/08/11 06:51:08;;;;;;;12.80;7.10;;;;;;;21.52;50.92;99235.95;105779;1255;74139;-23
2023/08/11 06:53:36;;;;;;;6.90;3.30;;;;;;;21.43;51.22;99232.31;105751;1255;73006;-22
2023/08/11 06:56:03;;;;;;;10.20;3.20;;;;;;;21.55;51.26;99236.20;105786;1256;61070;-23
2023/08/11 06:58:30;;;;;;;6.40;2.40;;;;;;;21.65;50.36;99236.55;103582;1254;2797033;-23
2023/08/11 07:00:57;;;;;;;4.00;2.70;;;;;;;21.90;48.94;99238.55;105486;1261;73692;-23
2023/08/11 07:03:24;;;;;;;4.80;2.00;;;;;;;21.93;49.04;99243.46;105580;1257;74429;-23
2023/08/11 07:05:51;;;;;;;5.00;2.00;;;;;;;22.15;47.95;99242.08;105802;1254;73218;-24
2023/08/11 07:08:19;;;;;;;5.40;2.20;;;;;;;22.27;48.50;99243.43;105539;1257;61180;-23
2023/08/11 07:10:46;;;;;;;3.80;2.50;;;;;;;22.32;47.57;99243.27;105721;1257;61150;-22
2023/08/11 07:13:13;;;;;;;3.40;2.00;;;;;;;22.41;47.33;99245.60;105697;1254;76089;-22
2023/08/11 07:15:40;;;;;;;3.00;1.90;;;;;;;22.59;47.94;99242.04;105711;1254;74128;-22
2023/08/11 07:18:08;;;;;;;18.70;12.00;;;;;;;22.72;47.59;99241.39;105744;1254;72426;-23
2023/08/11 07:20:39;;;;;;;15.20;8.30;;;;;;;22.37;47.61;99237.70;105537;1254;61091;-22
2023/08/11 07:23:06;;;;;;;7.70;3.50;;;;;;;22.61;47.99;99236.94;105552;1257;61263;-22
2023/08/11 07:25:33;;;;;;;3.40;2.20;;;;;;;22.74;47.67;99233.56;105555;1254;73801;-22
2023/08/11 07:28:00;;;;;;;6.20;3.80;;;;;;;23.02;47.13;99230.42;105551;1256;74185;-23
2023/08/11 07:30:30;;;;;;;17.50;3.30;;;;;;;22.80;47.22;99233.45;105529;1257;72689;-22
2023/08/11 07:32:57;;;;;;;5.10;1.90;;;;;;;23.01;47.18;99234.80;105456;1253;61058;-22
2023/08/11 07:35:24;;;;;;;2.80;1.70;;;;;;;23.23;46.56;99229.85;105603;1262;61125;-22
2023/08/11 07:37:51;;;;;;;7.20;2.80;;;;;;;23.42;45.58;99229.41;105516;1255;73752;-24
2023/08/11 07:40:18;;;;;;;4.40;2.10;;;;;;;23.61;45.43;99222.17;105311;1254;72936;-23
2023/08/11 07:42:45;;;;;;;4.10;1.90;;;;;;;23.32;45.14;99229.41;105498;1254;72641;-22
2023/08/11 07:57:13;;;;;;;2.50;1.70;;;;;;;24.12;42.03;99229.08;104260;1271;615284;-22
2023/08/11 07:59:42;;;;;;;2.70;1.70;;;;;;;24.15;40.90;99222.81;105171;1263;61075;-22
2023/08/11 08:02:09;;;;;;;2.90;1.50;;;;;;;24.16;39.65;99221.42;105268;1266;61058;-22
2023/08/11 08:04:36;;;;;;;4.70;2.40;;;;;;;23.86;42.36;99222.02;105140;1263;72230;-24
2023/08/11 08:07:04;;;;;;;4.00;2.00;;;;;;;24.28;42.39;99218.34;104915;1263;74268;-22
2023/08/11 08:09:33;;;;;;;2.90;1.70;;;;;;;24.14;41.92;99218.13;103095;1261;2767094;-23
2023/08/11 08:12:01;;;;;;;3.40;1.70;;;;;;;24.47;41.52;99220.02;105205;1263;61185;-22
2023/08/11 08:14:29;;;;;;;3.50;1.80;;;;;;;24.79;39.72;99217.00;105257;1264;61062;-22
2023/08/11 08:17:01;;;;;;;6.10;1.90;;;;;;;24.90;39.48;99215.75;105316;1261;72106;-22
2023/08/11 08:19:28;;;;;;;4.70;1.90;;;;;;;24.60;38.88;99212.59;105242;1261;74420;-21
2023/08/11 08:21:55;;;;;;;4.60;1.70;;;;;;;24.84;38.90;99215.99;105245;1266;71526;-22
2023/08/11 08:24:22;;;;;;;2.60;1.60;;;;;;;25.28;39.27;99211.77;105291;1261;60981;-22
2023/08/11 08:26:51;;;;;;;2.30;1.40;;;;;;;25.51;37.31;99210.26;105209;1265;61259;-22
2023/08/11 08:29:18;;;;;;;2.40;1.50;;;;;;;25.39;37.13;99212.27;105214;1261;72016;-22
2023/08/11 08:31:45;;;;;;;3.30;1.90;;;;;;;25.24;37.87;99215.75;105235;1261;74311;-22
2023/08/11 08:34:12;;;;;;;3.90;2.90;;;;;;;24.30;38.53;99213.29;105271;1261;72760;-22
2023/08/11 08:36:39;;;;;;;4.40;1.80;;;;;;;24.99;38.13;99214.83;105256;1260;61085;-22
2023/08/11 08:39:07;;;;;;;3.60;1.60;;;;;;;25.12;35.26;99211.61;105261;1266;61096;-22
2023/08/11 08:41:38;;;;;;;5.60;2.30;;;;;;;25.23;36.28;99212.23;105219;1261;72086;-22
2023/08/11 08:44:05;;;;;;;3.20;1.70;;;;;;;25.51;37.07;99213.61;105218;1261;74344;-22
2023/08/11 08:46:32;;;;;;;6.70;2.10;;;;;;;25.72;36.23;99212.12;105119;1261;72559;-22
2023/08/11 08:49:07;;;;;;;6.70;1.60;;;;;;;25.48;36.84;99210.63;104999;1261;61008;-22
2023/08/11 08:51:35;;;;;;;2.20;1.60;;;;;;;25.53;36.95;99211.77;105181;1262;61192;-23
2023/08/11 08:54:01;;;;;;;6.50;1.90;;;;;;;25.57;37.09;99204.58;104930;1261;73034;-23
2023/08/11 08:56:29;;;;;;;2.50;1.70;;;;;;;25.48;36.61;99206.06;105226;1264;74114;-22
2023/08/11 08:58:56;;;;;;;4.00;2.10;;;;;;;25.26;36.44;99205.98;104861;1264;72683;-23
2023/08/11 09:01:24;;;;;;;5.10;2.70;;;;;;;25.22;36.75;99203.87;105014;1264;61080;-23
2023/08/11 09:03:51;;;;;;;5.20;1.80;;;;;;;25.26;37.35;99203.20;104802;1271;61205;-23
2023/08/11 09:06:19;;;;;;;3.60;2.10;;;;;;;25.69;36.94;99201.85;104900;1264;72862;-22
2023/08/11 09:08:46;;;;;;;5.00;2.00;;;;;;;25.69;38.27;99205.36;105163;1264;74390;-22
2023/08/11 09:11:13;;;;;;;4.10;1.70;;;;;;;26.17;37.05;99205.98;105213;1264;73071;-22
2023/08/11 09:13:43;;;;;;;4.40;1.50;;;;;;;26.21;36.01;99212.54;105201;1266;61048;-23
2023/08/11 09:16:14;;;;;;;2.90;1.50;;;;;;;26.49;35.68;99210.52;104806;1270;61164;-25
2023/08/11 09:18:42;;;;;;;6.00;2.40;;;;;;;26.27;35.53;99207.14;104856;1264;71548;-23
2023/08/11 09:21:09;;;;;;;2.50;1.60;;;;;;;25.97;34.93;99206.27;104757;1264;74405;-23
2023/08/11 09:23:36;;;;;;;2.00;1.80;;;;;;;26.40;34.95;99206.22;105550;1254;71478;-23
2023/08/11 09:26:03;;;;;;;17.00;4.20;;;;;;;26.22;35.65;99208.31;105783;1251;61070;-23
2023/08/11 09:28:30;;;;;;;4.20;2.10;;;;;;;25.95;36.38;99206.89;105784;1252;61160;-23
2023/08/11 09:30:57;;;;;;;4.70;2.30;;;;;;;25.43;36.03;99204.66;105673;1254;72910;-23
2023/08/11 09:33:25;;;;;;;9.50;5.50;;;;;;;26.06;35.74;99206.22;105766;1251;74155;-24
2023/08/11 09:35:53;;;;;;;2.10;1.90;;;;;;;26.72;36.13;99210.64;105624;1251;71554;-23
2023/08/11 09:38:20;;;;;;;10.40;4.70;;;;;;;27.39;35.02;99206.19;105776;1256;61035;-23
2023/08/11 09:40:48;;;;;;;4.50;2.20;;;;;;;27.65;33.92;99202.41;106005;1251;61101;-23
2023/08/11 09:43:15;;;;;;;3.70;1.90;;;;;;;27.14;33.09;99207.81;105919;1251;73019;-24
2023/08/11 09:45:42;;;;;;;3.20;1.50;;;;;;;26.78;33.29;99204.70;105820;1251;74223;-23
2023/08/11 09:48:10;;;;;;;2.80;1.70;;;;;;;26.79;33.78;99201.60;105931;1251;72445;-23
2023/08/11 09:50:37;;;;;;;1.90;1.60;;;;;;;27.04;32.56;99197.45;105722;1251;61101;-24
2023/08/11 09:53:05;;;;;;;3.80;2.10;;;;;;;27.07;32.73;99198.44;105826;1260;61247;-23
2023/08/11 09:55:32;;;;;;;6.40;1.80;;;;;;;27.04;31.53;99202.54;105672;1251;73007;-23
2023/08/11 09:57:59;;;;;;;3.40;1.70;;;;;;;27.51;31.53;99194.83;105666;1252;73417;-23
2023/08/11 10:00:27;;;;;;;2.00;1.50;;;;;;;27.73;31.09;99187.39;105801;1254;72513;-23
2023/08/11 10:03:15;;;;;;;2.90;1.60;;;;;;;27.37;31.46;99193.27;105864;1251;61138;-24
2023/08/11 10:05:43;;;;;;;6.50;2.00;;;;;;;27.05;32.25;99192.58;105938;1256;61188;-23
2023/08/11 10:08:14;;;;;;;2.30;1.60;;;;;;;26.94;32.80;99191.45;105717;1251;73044;-24
2023/08/11 10:10:41;;;;;;;3.80;1.70;;;;;;;26.48;33.71;99191.48;105752;1254;74132;-23
2023/08/11 10:13:15;;;;;;;3.40;1.90;;;;;;;26.18;34.71;99185.97;105679;1254;72471;-23
2023/08/11 10:15:42;;;;;;;2.20;1.50;;;;;;;25.55;35.67;99184.82;105432;1254;61123;-23
2023/08/11 10:18:09;;;;;;;2.30;1.70;;;;;;;25.37;35.85;99185.07;105797;1259;61166;-22
2023/08/11 10:20:36;;;;;;;2.40;1.80;;;;;;;25.26;35.73;99187.07;105897;1251;72874;-22
2023/08/11 10:23:03;;;;;;;2.20;1.80;;;;;;;25.85;35.79;99183.74;105913;1252;74762;-22
2023/08/11 10:25:30;;;;;;;11.70;2.30;;;;;;;25.72;34.89;99182.73;105986;1257;72298;-23
2023/08/11 10:27:57;;;;;;;3.30;1.80;;;;;;;26.72;34.96;99172.89;105490;1251;61069;-22
2023/08/11 10:30:24;;;;;;;3.40;1.60;;;;;;;26.88;33.71;99176.56;105706;1256;61247;-22
2023/08/11 10:33:02;;;;;;;3.10;1.60;;;;;;;27.39;33.06;99174.27;105969;1251;72986;-23
2023/08/11 10:35:46;;;;;;;10.10;2.50;;;;;;;27.22;32.40;99168.52;105708;1252;74096;-23
2023/08/11 10:38:27;;;;;;;3.80;1.70;;;;;;;26.81;32.39;99166.00;105925;1257;72436;-23
2023/08/11 10:41:05;;;;;;;3.10;1.80;;;;;;;27.27;31.78;99155.83;105685;1251;61148;-23
2023/08/11 10:43:35;;;;;;;2.10;1.50;;;;;;;27.57;31.02;99156.78;105664;1257;61058;-24
2023/08/11 10:46:22;;;;;;;2.20;1.70;;;;;;;26.85;32.61;99161.56;105647;1251;72923;-23
2023/08/11 10:48:54;;;;;;;5.50;1.80;;;;;;;27.21;33.24;99161.25;105558;1259;74314;-23
2023/08/11 10:51:31;;;;;;;2.40;1.90;;;;;;;27.50;32.23;99159.02;105704;1262;72579;-25
2023/08/11 10:54:10;;;;;;;2.30;1.70;;;;;;;27.28;32.44;99162.27;105640;1254;61156;-24
2023/08/11 10:56:42;;;;;;;2.60;1.60;;;;;;;27.12;32.26;99160.08;105609;1252;61086;-25
2023/08/11 10:59:15;;;;;;;1.80;1.60;;;;;;;27.27;32.65;99157.16;105585;1254;73041;-23
2023/08/11 11:01:45;;;;;;;2.50;1.50;;;;;;;27.00;33.45;99157.64;105598;1257;74339;-24
2023/08/11 11:04:12;;;;;;;1.60;1.40;;;;;;;26.92;33.29;99153.29;105669;1253;72383;-23
2023/08/11 11:06:39;;;;;;;3.60;1.40;;;;;;;26.79;33.90;99149.61;105971;1251;61223;-24
2023/08/11 11:09:09;;;;;;;3.50;1.70;;;;;;;27.18;33.83;99148.84;105772;1254;61102;-23
2023/08/11 11:11:37;;;;;;;6.00;3.00;;;;;;;27.60;33.30;99144.00;105838;1251;73092;-23
2023/08/11 11:14:05;;;;;;;1.70;1.50;;;;;;;27.85;31.98;99138.95;105837;1257;74396;-23
2023/08/11 11:16:35;;;;;;;2.60;1.70;;;;;;;27.62;31.79;99141.04;105700;1259;72596;-23
2023/08/11 11:19:03;;;;;;;3.60;1.60;;;;;;;27.82;31.43;99145.30;105940;1251;61130;-23
2023/08/11 11:21:30;;;;;;;4.90;1.70;;;;;;;28.07;31.17;99141.73;105661;1259;61183;-23
2023/08/11 11:23:57;;;;;;;4.20;1.40;;;;;;;28.03;31.26;99136.14;105961;1251;72852;-23
2023/08/11 11:26:29;;;;;;;2.30;1.30;;;;;;;27.97;31.09;99140.52;105875;1260;74208;-23
2023/08/11 11:28:58;;;;;;;4.20;1.60;;;;;;;28.07;30.58;99144.95;105877;1251;73188;-24
2023/08/11 11:31:29;;;;;;;1.90;1.50;;;;;;;28.15;30.73;99145.71;106004;1252;61190;-23
2023/08/11 11:33:57;;;;;;;2.30;1.90;;;;;;;27.99;30.68;99140.56;105731;1257;61173;-23
2023/08/11 11:36:25;;;;;;;1.80;1.40;;;;;;;27.94;31.62;99146.23;105980;1251;73024;-23
2023/08/11 11:38:52;;;;;;;5.10;1.90;;;;;;;27.87;32.67;99140.48;106013;1256;74275;-24
2023/08/11 11:41:19;;;;;;;4.10;1.70;;;;;;;27.52;32.12;99152.11;105890;1251;71708;-23